createdAt,value
2023-05-06T00:01:40.700Z,82.59
2023-05-06T00:04:44.574Z,82.52
2023-05-06T00:07:47.475Z,81.67
2023-05-06T00:10:50.243Z,81.39
2023-05-06T00:13:53.971Z,81.36
2023-05-06T00:16:56.527Z,81.07
2023-05-06T00:20:00.399Z,80.63
2023-05-06T00:23:03.057Z,80.72
2023-05-06T00:26:06.094Z,80.52
2023-05-06T00:29:08.770Z,79.78
2023-05-06T00:32:11.498Z,81.04
2023-05-06T00:35:15.532Z,81.76
2023-05-06T00:38:19.571Z,82.10
2023-05-06T00:41:22.416Z,82.14
2023-05-06T00:44:25.071Z,83.00
2023-05-06T00:47:27.787Z,83.49
2023-05-06T00:50:33.201Z,84.04
2023-05-06T00:53:35.858Z,84.49
2023-05-06T00:56:38.530Z,84.67
2023-05-06T00:59:41.267Z,84.66
2023-05-06T01:02:47.558Z,84.12
2023-05-06T01:06:04.137Z,83.67
2023-05-06T01:09:14.629Z,83.29
2023-05-06T01:12:22.467Z,82.42
2023-05-06T01:15:30.258Z,81.59
2023-05-06T01:18:33.709Z,81.59
2023-05-06T01:21:37.880Z,81.06
2023-05-06T01:24:42.650Z,82.13
2023-05-06T01:27:45.152Z,82.72
2023-05-06T01:30:54.449Z,83.04
2023-05-06T01:34:06.681Z,82.54
2023-05-06T01:37:14.991Z,82.53
2023-05-06T01:40:19.199Z,82.46
2023-05-06T01:43:22.574Z,81.79
2023-05-06T01:46:25.999Z,81.50
2023-05-06T01:49:28.526Z,80.84
2023-05-06T01:52:31.213Z,80.64
2023-05-06T01:55:35.132Z,80.27
2023-05-06T01:58:38.310Z,79.15
2023-05-06T02:01:42.155Z,78.52
2023-05-06T02:04:45.016Z,77.95
2023-05-06T02:07:47.497Z,78.08
2023-05-06T02:10:51.414Z,78.60
2023-05-06T02:13:53.916Z,79.36
2023-05-06T02:16:56.429Z,79.59
2023-05-06T02:19:59.019Z,79.60
2023-05-06T02:23:01.597Z,79.56
2023-05-06T02:26:05.691Z,79.64
2023-05-06T02:29:08.185Z,78.91
2023-05-06T02:32:10.847Z,78.73
2023-05-06T02:35:13.341Z,78.89
2023-05-06T02:38:15.844Z,79.21
2023-05-06T02:41:19.663Z,78.45
2023-05-06T02:44:22.219Z,78.66
2023-05-06T02:47:25.209Z,78.14
2023-05-06T02:50:27.907Z,77.79
2023-05-06T02:53:30.504Z,78.99
2023-05-06T02:56:35.105Z,78.95
2023-05-06T02:59:37.869Z,79.24
2023-05-06T03:02:40.767Z,79.02
2023-05-06T03:05:43.326Z,78.87
2023-05-06T03:08:46.184Z,79.35
2023-05-06T03:11:50.232Z,78.66
2023-05-06T03:14:52.723Z,79.04
2023-05-06T03:17:55.346Z,79.53
2023-05-06T03:20:57.916Z,78.75
2023-05-06T03:24:00.946Z,79.42
2023-05-06T03:27:04.954Z,79.25
2023-05-06T03:30:09.500Z,79.16
2023-05-06T03:33:12.189Z,79.24
2023-05-06T03:36:15.077Z,79.39
2023-05-06T03:39:17.608Z,78.95
2023-05-06T03:42:21.599Z,79.66
2023-05-06T03:45:24.102Z,79.78
2023-05-06T03:48:26.754Z,79.81
2023-05-06T03:51:29.495Z,80.02
2023-05-06T03:54:32.065Z,81.53
2023-05-06T03:57:36.175Z,82.41
2023-05-06T04:00:39.044Z,83.61
2023-05-06T04:03:41.679Z,84.51
2023-05-06T04:06:44.977Z,85.01
2023-05-06T04:09:47.501Z,85.32
2023-05-06T04:12:52.279Z,86.23
2023-05-06T04:15:55.163Z,85.83
2023-05-06T04:18:59.027Z,85.75
2023-05-06T04:22:02.328Z,85.44
2023-05-06T04:25:05.392Z,85.40
2023-05-06T04:28:09.519Z,85.38
2023-05-06T04:31:12.212Z,85.36
2023-05-06T04:34:15.156Z,85.18
2023-05-06T04:37:18.867Z,84.77
2023-05-06T04:40:21.663Z,84.94
2023-05-06T04:43:26.471Z,85.71
2023-05-06T04:46:29.109Z,85.21
2023-05-06T04:49:31.687Z,84.29
2023-05-06T04:52:34.832Z,84.25
2023-05-06T04:55:37.318Z,83.77
2023-05-06T04:58:41.301Z,83.11
2023-05-06T05:01:44.025Z,83.06
2023-05-06T05:04:46.668Z,82.92
2023-05-06T05:07:49.223Z,82.75
2023-05-06T05:10:51.923Z,81.99
2023-05-06T05:13:57.405Z,81.75
2023-05-06T05:17:00.753Z,81.12
2023-05-06T05:20:04.774Z,80.53
2023-05-06T05:23:07.367Z,79.95
2023-05-06T05:26:09.887Z,79.33
2023-05-06T05:29:14.227Z,78.43
2023-05-06T05:32:17.082Z,78.03
2023-05-06T05:35:19.807Z,77.54
2023-05-06T05:38:23.512Z,76.00
2023-05-06T05:41:26.855Z,74.09
2023-05-06T05:44:31.245Z,74.39
2023-05-06T05:47:33.834Z,74.63
2023-05-06T05:50:36.451Z,74.73
2023-05-06T05:53:39.078Z,74.12
2023-05-06T05:56:41.721Z,73.40
2023-05-06T05:59:45.692Z,72.78
2023-05-06T06:02:48.378Z,71.64
2023-05-06T06:05:52.865Z,70.31
2023-05-06T06:08:55.574Z,68.86
2023-05-06T06:11:58.225Z,67.43
2023-05-06T06:15:02.346Z,66.83
2023-05-06T06:18:05.332Z,66.42
2023-05-06T06:21:07.947Z,64.52
2023-05-06T06:24:10.480Z,63.07
2023-05-06T06:27:13.157Z,62.97
2023-05-06T06:30:17.294Z,61.22
2023-05-06T06:33:19.916Z,60.65
2023-05-06T06:36:22.683Z,59.82
2023-05-06T06:39:25.871Z,57.92
2023-05-06T06:42:28.475Z,58.58
2023-05-06T06:45:32.493Z,57.76
2023-05-06T06:48:35.853Z,58.07
2023-05-06T06:51:38.372Z,57.57
2023-05-06T06:54:41.228Z,57.07
2023-05-06T06:57:43.838Z,57.14
2023-05-06T07:00:47.853Z,56.00
2023-05-06T07:03:50.827Z,55.78
2023-05-06T07:06:53.764Z,55.20
2023-05-06T07:09:56.396Z,55.12
2023-05-06T07:12:59.185Z,55.25
2023-05-06T07:16:03.109Z,53.20
2023-05-06T07:19:05.658Z,53.17
2023-05-06T07:22:08.835Z,53.49
2023-05-06T07:25:11.670Z,54.25
2023-05-06T07:28:15.610Z,55.28
2023-05-06T07:31:21.036Z,55.23
2023-05-06T07:34:23.707Z,53.38
2023-05-06T07:37:26.215Z,50.82
2023-05-06T07:40:29.032Z,50.29
2023-05-06T07:43:31.826Z,51.08
2023-05-06T07:46:36.239Z,53.18
2023-05-06T07:49:40.728Z,54.20
2023-05-06T07:52:43.739Z,54.78
2023-05-06T07:55:46.708Z,54.08
2023-05-06T07:58:50.118Z,53.07
2023-05-06T08:01:54.309Z,50.50
2023-05-06T08:04:57.107Z,47.73
2023-05-06T08:08:00.336Z,46.53
2023-05-06T08:11:03.185Z,45.85
2023-05-06T08:14:05.948Z,45.34
2023-05-06T08:17:09.948Z,44.23
2023-05-06T08:20:14.412Z,43.49
2023-05-06T08:23:17.089Z,43.89
2023-05-06T08:26:19.829Z,44.42
2023-05-06T08:29:22.552Z,44.04
2023-05-06T08:32:26.867Z,43.57
2023-05-06T08:35:29.642Z,43.34
2023-05-06T08:38:32.524Z,43.48
2023-05-06T08:41:35.173Z,42.73
2023-05-06T08:44:38.132Z,41.24
2023-05-06T08:47:42.587Z,39.94
2023-05-06T08:50:45.673Z,39.33
2023-05-06T08:53:48.841Z,38.31
2023-05-06T08:56:54.230Z,40.51
2023-05-06T08:59:57.005Z,40.82
2023-05-06T09:03:01.756Z,43.51
2023-05-06T09:06:04.952Z,43.71
2023-05-06T09:09:07.381Z,44.28
2023-05-06T09:12:11.509Z,43.67
2023-05-06T09:15:14.520Z,42.17
2023-05-06T09:18:18.637Z,41.11
2023-05-06T09:21:21.366Z,40.39
2023-05-06T09:24:25.220Z,39.49
2023-05-06T09:27:29.645Z,39.12
2023-05-06T09:30:32.155Z,38.01
2023-05-06T09:33:37.282Z,37.43
2023-05-06T09:36:40.129Z,36.33
2023-05-06T09:39:42.711Z,34.95
2023-05-06T09:42:45.708Z,36.16
2023-05-06T09:45:48.261Z,38.37
2023-05-06T09:48:53.040Z,37.82
2023-05-06T09:51:57.729Z,37.48
2023-05-06T09:55:00.535Z,37.20
2023-05-06T09:58:04.724Z,38.16
2023-05-06T10:01:09.006Z,37.59
2023-05-06T10:04:14.468Z,37.47
2023-05-06T10:07:19.652Z,35.88
2023-05-06T10:10:25.300Z,35.30
2023-05-06T10:13:28.327Z,35.60
2023-05-06T10:16:31.232Z,36.17
2023-05-06T10:19:35.293Z,36.74
2023-05-06T10:22:42.828Z,36.90
2023-05-06T10:25:47.891Z,37.04
2023-05-06T10:28:53.216Z,36.82
2023-05-06T10:31:57.668Z,37.44
2023-05-06T10:35:09.655Z,37.00
2023-05-06T10:38:16.442Z,36.68
2023-05-06T10:41:21.191Z,35.41
2023-05-06T10:44:57.394Z,34.79
2023-05-06T10:48:12.816Z,37.02
2023-05-06T10:51:24.774Z,36.57
2023-05-06T10:54:27.742Z,35.46
2023-05-06T10:57:31.051Z,34.68
2023-05-06T11:00:34.944Z,33.96
2023-05-06T11:03:37.720Z,33.60
2023-05-06T11:06:43.107Z,33.54
2023-05-06T11:09:55.840Z,33.62
2023-05-06T11:12:58.632Z,34.23
2023-05-06T11:16:02.539Z,34.06
2023-05-06T11:19:06.716Z,33.45
2023-05-06T11:22:39.396Z,33.77
2023-05-06T11:25:43.518Z,33.38
2023-05-06T11:28:47.943Z,33.71
2023-05-06T11:31:50.909Z,33.43
2023-05-06T11:34:55.438Z,33.21
2023-05-06T11:37:59.414Z,34.10
2023-05-06T11:41:02.158Z,34.24
2023-05-06T11:44:04.817Z,32.74
2023-05-06T11:47:08.678Z,32.49
2023-05-06T11:50:12.124Z,31.85
2023-05-06T11:53:18.958Z,31.63
2023-05-06T11:56:21.781Z,30.63
2023-05-06T11:59:30.194Z,29.15
2023-05-06T12:02:32.819Z,28.92
2023-05-06T12:05:35.558Z,28.52
2023-05-06T12:08:39.684Z,28.84
2023-05-06T12:11:44.883Z,29.26
2023-05-06T12:14:47.956Z,28.82
2023-05-06T12:17:50.470Z,28.06
2023-05-06T12:20:54.438Z,28.28
2023-05-06T12:23:59.313Z,28.89
2023-05-06T12:27:01.844Z,30.40
2023-05-06T12:30:04.877Z,29.07
2023-05-06T12:33:07.942Z,28.69
2023-05-06T12:36:10.720Z,27.66
2023-05-06T12:39:14.798Z,27.15
2023-05-06T12:42:20.447Z,27.36
2023-05-06T12:45:23.458Z,27.09
2023-05-06T12:48:25.844Z,26.04
2023-05-06T12:51:28.875Z,23.86
2023-05-06T12:54:32.743Z,20.37
2023-05-06T12:57:35.733Z,20.89
2023-05-06T13:00:38.373Z,21.80
2023-05-06T13:03:41.319Z,21.60
2023-05-06T13:06:43.968Z,21.34
2023-05-06T13:09:48.243Z,21.51
2023-05-06T13:12:50.648Z,22.89
2023-05-06T13:15:53.679Z,21.94
2023-05-06T13:18:56.181Z,18.01
2023-05-06T13:21:58.871Z,17.06
2023-05-06T13:25:03.255Z,17.23
2023-05-06T13:28:05.988Z,18.04
2023-05-06T13:31:08.791Z,17.33
2023-05-06T13:34:11.733Z,16.17
2023-05-06T13:37:14.226Z,16.30
2023-05-06T13:40:18.136Z,17.42
2023-05-06T13:43:20.704Z,14.84
2023-05-06T13:46:23.258Z,16.24
2023-05-06T13:49:25.875Z,18.80
2023-05-06T13:52:28.398Z,18.50
2023-05-06T13:55:32.706Z,17.80
2023-05-06T13:58:35.505Z,15.09
2023-05-06T14:01:38.149Z,13.20
2023-05-06T14:04:40.721Z,12.88
2023-05-06T14:07:43.369Z,11.67
2023-05-06T14:10:47.519Z,10.93
2023-05-06T14:13:49.937Z,10.97
2023-05-06T14:16:54.583Z,10.49
2023-05-06T14:19:57.027Z,12.22
2023-05-06T14:22:59.453Z,11.98
2023-05-06T14:26:03.390Z,13.35
2023-05-06T14:29:05.753Z,14.97
2023-05-06T14:32:08.391Z,13.18
2023-05-06T14:35:11.730Z,12.75
2023-05-06T14:38:14.484Z,12.09
2023-05-06T14:41:18.645Z,12.74
2023-05-06T14:44:21.152Z,11.55
2023-05-06T14:47:23.682Z,12.22
2023-05-06T14:50:26.270Z,11.72
2023-05-06T14:53:29.000Z,13.95
2023-05-06T14:56:32.740Z,14.84
2023-05-06T14:59:35.613Z,13.86
2023-05-06T15:02:40.507Z,13.08
2023-05-06T15:05:43.170Z,14.26
2023-05-06T15:08:45.999Z,13.80
2023-05-06T15:11:50.442Z,13.45
2023-05-06T15:14:52.808Z,12.36
2023-05-06T15:17:55.591Z,13.35
2023-05-06T15:21:02.247Z,12.76
2023-05-06T15:24:04.914Z,13.14
2023-05-06T15:27:09.240Z,13.59
2023-05-06T15:30:12.141Z,14.50
2023-05-06T15:33:14.982Z,14.39
2023-05-06T15:36:17.848Z,15.18
2023-05-06T15:39:20.381Z,15.17
2023-05-06T15:42:24.560Z,16.08
2023-05-06T15:45:27.202Z,15.71
2023-05-06T15:48:30.097Z,15.17
2023-05-06T15:51:32.556Z,14.46
2023-05-06T15:54:37.545Z,13.83
2023-05-06T15:57:42.971Z,14.47
2023-05-06T16:00:45.504Z,13.40
2023-05-06T16:03:48.188Z,14.23
2023-05-06T16:06:51.362Z,15.37
2023-05-06T16:09:53.795Z,14.80
2023-05-06T16:12:57.767Z,15.05
2023-05-06T16:16:01.569Z,16.80
2023-05-06T16:19:04.404Z,17.13
2023-05-06T16:22:06.730Z,17.90
2023-05-06T16:25:09.626Z,18.06
2023-05-06T16:28:13.434Z,18.18
2023-05-06T16:31:16.166Z,17.06
2023-05-06T16:34:18.823Z,15.22
2023-05-06T16:37:21.259Z,15.31
2023-05-06T16:40:23.755Z,15.30
2023-05-06T16:43:28.046Z,17.54
2023-05-06T16:46:30.681Z,19.22
2023-05-06T16:49:33.891Z,21.02
2023-05-06T16:52:36.514Z,21.45
2023-05-06T16:55:39.721Z,20.93
2023-05-06T16:58:43.573Z,21.30
2023-05-06T17:01:46.177Z,22.70
2023-05-06T17:04:48.621Z,22.64
2023-05-06T17:07:51.328Z,22.64
2023-05-06T17:10:54.517Z,23.53
2023-05-06T17:13:58.633Z,24.22
2023-05-06T17:17:04.083Z,24.84
2023-05-06T17:20:07.239Z,25.87
2023-05-06T17:23:09.718Z,26.86
2023-05-06T17:26:12.480Z,27.79
2023-05-06T17:29:16.402Z,28.32
2023-05-06T17:32:19.877Z,28.53
2023-05-06T17:35:22.740Z,28.91
2023-05-06T17:38:26.015Z,30.00
2023-05-06T17:41:28.836Z,30.12
2023-05-06T17:44:33.086Z,30.44
2023-05-06T17:47:35.980Z,31.18
2023-05-06T17:50:38.812Z,32.20
2023-05-06T17:53:41.566Z,32.54
2023-05-06T17:56:49.057Z,32.91
2023-05-06T17:59:52.957Z,33.37
2023-05-06T18:02:56.553Z,33.65
2023-05-06T18:05:59.981Z,33.82
2023-05-06T18:09:02.374Z,34.36
2023-05-06T18:12:05.147Z,34.78
2023-05-06T18:15:10.159Z,35.46
2023-05-06T18:18:12.805Z,35.98
2023-05-06T18:21:15.498Z,36.44
2023-05-06T18:24:18.258Z,37.24
2023-05-06T18:27:20.880Z,38.96
2023-05-06T18:30:24.754Z,39.77
2023-05-06T18:33:27.860Z,41.55
2023-05-06T18:36:31.006Z,42.41
2023-05-06T18:39:33.487Z,42.60
2023-05-06T18:42:35.983Z,43.75
2023-05-06T18:45:39.853Z,44.16
2023-05-06T18:48:42.303Z,44.61
2023-05-06T18:51:44.681Z,45.36
2023-05-06T18:54:47.248Z,45.80
2023-05-06T18:57:50.247Z,46.30
2023-05-06T19:00:55.618Z,47.00
2023-05-06T19:03:58.140Z,46.79
2023-05-06T19:07:01.286Z,47.18
2023-05-06T19:10:03.974Z,47.86
2023-05-06T19:13:07.444Z,47.98
2023-05-06T19:16:11.514Z,48.58
2023-05-06T19:19:14.118Z,48.64
2023-05-06T19:22:17.029Z,48.89
2023-05-06T19:25:21.253Z,49.51
2023-05-06T19:28:23.780Z,49.76
2023-05-06T19:31:27.882Z,50.16
2023-05-06T19:34:30.378Z,50.35
2023-05-06T19:37:35.306Z,50.61
2023-05-06T19:40:37.689Z,50.72
2023-05-06T19:43:43.705Z,50.99
2023-05-06T19:46:47.698Z,51.00
2023-05-06T19:49:51.322Z,51.75
2023-05-06T19:52:53.800Z,51.46
2023-05-06T19:55:57.942Z,51.80
2023-05-06T19:59:00.397Z,52.34
2023-05-06T20:02:04.496Z,52.43
2023-05-06T20:05:07.445Z,53.07
2023-05-06T20:08:11.171Z,53.53
2023-05-06T20:11:13.617Z,53.60
2023-05-06T20:14:16.153Z,53.91
2023-05-06T20:17:20.279Z,53.78
2023-05-06T20:20:23.063Z,53.97
2023-05-06T20:23:25.949Z,54.07
2023-05-06T20:26:28.296Z,54.18
2023-05-06T20:29:30.810Z,54.88
2023-05-06T20:32:34.938Z,54.81
2023-05-06T20:35:40.347Z,55.21
2023-05-06T20:38:42.753Z,55.19
2023-05-06T20:41:45.332Z,55.39
2023-05-06T20:44:47.744Z,55.78
2023-05-06T20:47:51.575Z,56.08
2023-05-06T20:50:54.823Z,55.82
2023-05-06T20:53:58.320Z,55.73
2023-05-06T20:57:02.545Z,55.91
2023-05-06T21:00:07.375Z,56.37
2023-05-06T21:03:11.287Z,56.37
2023-05-06T21:06:13.896Z,56.50
2023-05-06T21:09:16.370Z,56.92
2023-05-06T21:12:18.716Z,57.08
2023-05-06T21:15:21.152Z,57.18
2023-05-06T21:18:25.139Z,57.52
2023-05-06T21:21:30.111Z,57.94
2023-05-06T21:24:32.560Z,58.10
2023-05-06T21:27:35.041Z,58.14
2023-05-06T21:30:37.694Z,58.07
2023-05-06T21:33:41.693Z,58.75
2023-05-06T21:36:44.086Z,59.07
2023-05-06T21:39:46.458Z,59.08
2023-05-06T21:42:48.837Z,59.48
2023-05-06T21:45:51.226Z,59.23
2023-05-06T21:48:54.878Z,59.45
2023-05-06T21:51:57.395Z,59.87
2023-05-06T21:55:00.437Z,60.38
2023-05-06T21:58:02.783Z,60.56
2023-05-06T22:01:05.163Z,60.75
2023-05-06T22:04:12.654Z,60.61
2023-05-06T22:07:15.157Z,60.86
2023-05-06T22:10:17.519Z,60.75
2023-05-06T22:13:20.081Z,61.48
2023-05-06T22:16:22.619Z,61.91
2023-05-06T22:19:26.581Z,62.63
2023-05-06T22:22:28.977Z,62.82
2023-05-06T22:25:31.333Z,63.20
2023-05-06T22:28:33.772Z,63.41
2023-05-06T22:31:36.522Z,63.50
2023-05-06T22:34:40.565Z,63.51
2023-05-06T22:37:43.123Z,63.56
2023-05-06T22:40:45.627Z,63.45
2023-05-06T22:43:48.012Z,63.57
2023-05-06T22:46:50.501Z,63.87
2023-05-06T22:49:54.587Z,63.80
2023-05-06T22:52:57.130Z,64.04
2023-05-06T22:55:59.812Z,64.29
2023-05-06T22:59:02.228Z,64.79
2023-05-06T23:02:04.761Z,65.46
2023-05-06T23:05:09.171Z,65.28
2023-05-06T23:08:11.925Z,65.78
2023-05-06T23:11:14.252Z,66.66
2023-05-06T23:14:17.319Z,66.90
2023-05-06T23:17:19.701Z,67.08
2023-05-06T23:20:23.558Z,67.05
2023-05-06T23:23:26.088Z,66.82
2023-05-06T23:26:28.854Z,66.61
2023-05-06T23:29:31.391Z,66.46
2023-05-06T23:32:33.845Z,65.79
2023-05-06T23:35:37.703Z,64.76
2023-05-06T23:38:40.120Z,64.69
2023-05-06T23:41:42.912Z,64.50
2023-05-06T23:44:45.442Z,64.52
2023-05-06T23:47:48.063Z,64.26
2023-05-06T23:50:51.975Z,64.22
2023-05-06T23:53:54.636Z,64.28
2023-05-06T23:56:57.252Z,64.44
2023-05-06T23:59:59.872Z,64.98
